Sandra Hugh — WDD9019 — position and weather

sailwx.info

Track history (hours):
 
Tides and Currents Weather Stations Pressure Air Temp Water Temp Dewpoint Dewpoint Depression Visibility Wind Speed Wind Dir Waves Ship Positions

Sandra Hugh

Owner: Sortwell Inc., DBA AmNav Maritime Services, Oakland, CA. More information available from US FCC via Universal Licensing System and Coast Guard Vessel Documentation Center.

Last reported at 2015-Mar-05 21:21 UTC. Time now 2015-Mar-06 02:45 UTC.
Position N 38°04' W 122°13'.

Length 24 m; draft 4.9 m.

Type: Tug. MMSI: 367305920.

Date/timePositionNaut miles runAvg speedWind from/ knotsBaromVisibWave heightAir tempDewpointWater temp
2015-Mar-05 21:21N 38°04' W 122°13'910.6
2015-Mar-05 20:32N 38°01' W 122°24'6 6.4
2015-Mar-05 19:33N 37°55' W 122°24'1 0.6
2015-Mar-05 18:28N 37°55' W 122°25'3 3.2
2015-Mar-05 17:33N 37°52' W 122°25'2 2.4
2015-Mar-05 16:32N 37°55' W 122°23'0 0.2
2015-Mar-05 15:34N 37°54' W 122°23'2 1.6
2015-Mar-05 14:32N 37°55' W 122°25'7 6.9
2015-Mar-05 13:33N 38°02' W 122°22'7 0.5
2015-Mar-04 23:05N 38°04' W 122°13'5 8.4
2015-Mar-04 22:32N 38°03' W 122°19'9 8.8
2015-Mar-04 21:33N 37°57' W 122°27'7 7.3
2015-Mar-04 20:33N 37°50' W 122°28'3 2.4
2015-Mar-04 19:30N 37°49' W 122°31'4 4.3
2015-Mar-04 18:33N 37°49' W 122°26'6 6.2
2015-Mar-04 17:33N 37°48' W 122°18'0 0.2
2015-Mar-04 16:33N 37°48' W 122°18'2 1.7
2015-Mar-04 15:31N 37°49' W 122°19'0 0.0
2015-Mar-04 14:31N 37°49' W 122°19'0 0.0
2015-Mar-04 13:31N 37°49' W 122°19'0 0.0
2015-Mar-04 12:31N 37°49' W 122°19'0 0.0
2015-Mar-04 11:31N 37°49' W 122°19'0 0.0
2015-Mar-04 10:31N 37°49' W 122°19'0 0.0
2015-Mar-04 09:31N 37°49' W 122°19'0 0.0
2015-Mar-04 08:31N 37°49' W 122°19'0 0.0
2015-Mar-04 07:31N 37°49' W 122°19'0 0.0
2015-Mar-04 06:31N 37°49' W 122°19'0 0.0
2015-Mar-04 05:31N 37°49' W 122°19'0 0.0
2015-Mar-04 04:31N 37°49' W 122°19'0 0.0
2015-Mar-04 03:25N 37°49' W 122°19'0 0.0
2015-Mar-04 02:31N 37°49' W 122°19'0 0.0
2015-Mar-04 01:25N 37°49' W 122°19'0 0.0
2015-Mar-04 00:31N 37°49' W 122°19'0 0.0
2015-Mar-03 23:31N 37°49' W 122°19'0 0.0
2015-Mar-03 22:31N 37°49' W 122°19'0 0.0
2015-Mar-03 21:31N 37°49' W 122°19'2 0.2
2015-Mar-03 13:33N 37°48' W 122°21'2 1.4
2015-Mar-03 12:18N 37°49' W 122°19'0 0.0
2015-Mar-03 10:30N 37°49' W 122°19'0 0.0
2015-Mar-03 09:30N 37°49' W 122°19'0 0.0
2015-Mar-03 08:18N 37°49' W 122°19'0 0.0
2015-Mar-03 07:18N 37°49' W 122°19'0 0.0
2015-Mar-03 06:12N 37°49' W 122°19'0 0.0
2015-Mar-03 02:24N 37°49' W 122°19'0 0.0
2015-Mar-02 21:24N 37°49' W 122°19'0 0.0
2015-Mar-02 20:12N 37°49' W 122°19'5 6.4
2015-Mar-02 19:26N 37°46' W 122°23'0 0.0
2015-Mar-02 18:26N 37°46' W 122°23'0 0.1
2015-Mar-02 17:30N 37°46' W 122°23'0 0.2
2015-Mar-02 16:29N 37°46' W 122°23'2 2.3
2015-Mar-02 15:33N 37°47' W 122°21'3 2.4
2015-Mar-02 14:29N 37°49' W 122°19'0 0.0
2015-Mar-02 13:32N 37°49' W 122°19'0 0.0
2015-Mar-02 11:32N 37°49' W 122°19'0 0.0
2015-Mar-02 10:20N 37°49' W 122°19'0 0.0
2015-Mar-02 09:20N 37°49' W 122°19'0 0.0
2015-Mar-02 08:32N 37°49' W 122°19'0 0.0
2015-Mar-02 07:23N 37°49' W 122°19'1 1.1
2015-Mar-02 06:24N 37°49' W 122°20'2 2.2
2015-Mar-02 05:33N 37°48' W 122°22'3 2.9
2015-Mar-02 04:32N 37°49' W 122°19'0 0.0
2015-Mar-02 03:32N 37°49' W 122°19'0 0.0
2015-Mar-02 02:32N 37°49' W 122°19'1 1.4
2015-Mar-02 01:33N 37°49' W 122°20'1 1.1
2015-Mar-02 00:23N 37°49' W 122°19'0 0.0
2015-Mar-01 23:32N 37°49' W 122°19'0 0.0
2015-Mar-01 22:29N 37°49' W 122°19'0 0.0
2015-Mar-01 21:32N 37°49' W 122°19'0 0.0
2015-Mar-01 20:29N 37°49' W 122°19'0 0.0
2015-Mar-01 19:26N 37°49' W 122°19'0 0.0
2015-Mar-01 18:26N 37°49' W 122°19'0 0.0
2015-Mar-01 17:11N 37°49' W 122°19'0 0.0
2015-Mar-01 16:26N 37°49' W 122°19'0 0.0
2015-Mar-01 15:20N 37°49' W 122°19'0 0.5
2015-Mar-01 14:30N 37°49' W 122°19'2 2.6
2015-Mar-01 13:33N 37°48' W 122°22'3 2.5
2015-Mar-01 12:26N 37°49' W 122°19'1 0.8
2015-Mar-01 11:33N 37°49' W 122°19'1 0.5
2015-Mar-01 10:16N 37°49' W 122°19'0 0.0
2015-Mar-01 09:16N 37°49' W 122°19'0 0.0
2015-Mar-01 08:25N 37°49' W 122°19'0 0.0
2015-Mar-01 07:22N 37°49' W 122°19'0 0.0
2015-Mar-01 06:28N 37°49' W 122°19'0 0.0
2015-Mar-01 05:28N 37°49' W 122°19'0 0.0
2015-Mar-01 04:16N 37°49' W 122°19'0 0.0
2015-Mar-01 03:07N 37°49' W 122°19'0 0.0
2015-Mar-01 02:04N 37°49' W 122°19'0 0.0
2015-Mar-01 01:28N 37°49' W 122°19'0 0.0
2015-Feb-28 23:16N 37°49' W 122°19'0 0.0
2015-Feb-28 22:28N 37°49' W 122°19'0 0.0
2015-Feb-28 21:07N 37°49' W 122°19'0 0.0
2015-Feb-28 20:31N 37°49' W 122°19'0 0.0
2015-Feb-28 19:04N 37°49' W 122°19'0 0.0
2015-Feb-28 17:22N 37°49' W 122°19'0 0.0
2015-Feb-28 15:31N 37°49' W 122°19'1 0.5
2015-Feb-28 14:33N 37°49' W 122°19'1 1.2
2015-Feb-28 13:30N 37°48' W 122°21'1 1.1
2015-Feb-28 12:17N 37°49' W 122°19'0 0.4
2015-Feb-28 11:28N 37°49' W 122°19'0 0.0
2015-Feb-28 10:22N 37°49' W 122°19'0 0.0
2015-Feb-28 09:22N 37°49' W 122°19'0 0.0
2015-Feb-28 08:28N 37°49' W 122°19'0 0.0
2015-Feb-28 07:31N 37°49' W 122°19'0 0.0
2015-Feb-28 06:31N 37°49' W 122°19'0 0.0
2015-Feb-28 05:28N 37°49' W 122°19'0 0.0
2015-Feb-28 04:28N 37°49' W 122°19'2 1.8
2015-Feb-28 03:29N 37°48' W 122°18'1 0.8
2015-Feb-28 02:33N 37°48' W 122°19'2 1.5
2015-Feb-28 01:32N 37°49' W 122°19'0 0.0
2015-Feb-28 00:32N 37°49' W 122°19'0 0.0
2015-Feb-27 23:32N 37°49' W 122°19'0 0.0
2015-Feb-27 22:32N 37°49' W 122°19'1 0.7
2015-Feb-27 21:32N 37°49' W 122°19'1 0.7
2015-Feb-27 20:31N 37°49' W 122°19'0 0.0
2015-Feb-27 19:31N 37°49' W 122°19'0 0.0
2015-Feb-27 18:31N 37°49' W 122°19'0 0.0
2015-Feb-27 17:28N 37°49' W 122°19'0 0.0
2015-Feb-27 16:28N 37°49' W 122°19'0 0.0
2015-Feb-27 15:31N 37°49' W 122°19'4 4.2
2015-Feb-27 14:31N 37°48' W 122°24'1 0.8
2015-Feb-27 13:32N 37°49' W 122°24'4 4.2
2015-Feb-27 12:34N 37°49' W 122°19'1 0.6
2015-Feb-27 11:32N 37°49' W 122°19'0 0.0
2015-Feb-27 10:32N 37°49' W 122°19'0 0.0
2015-Feb-27 09:29N 37°49' W 122°19'0 0.0
2015-Feb-27 08:32N 37°49' W 122°19'0 0.0
2015-Feb-27 07:32N 37°49' W 122°19'0 0.0
2015-Feb-27 06:32N 37°49' W 122°19'0 0.0
2015-Feb-27 05:32N 37°49' W 122°19'0 0.0
2015-Feb-27 04:32N 37°49' W 122°19'0 0.0
2015-Feb-27 03:32N 37°49' W 122°19'0 0.0
2015-Feb-27 02:29N 37°49' W 122°19'0 0.2
2015-Feb-27 01:33N 37°49' W 122°19'6 6.2
2015-Feb-27 00:34N 37°54' W 122°23'1 1.1
2015-Feb-26 23:33N 37°54' W 122°22'3 2.6
2015-Feb-26 22:32N 37°55' W 122°25'2 1.6
2015-Feb-26 21:33N 37°54' W 122°23'0 0.0
2015-Feb-26 20:33N 37°54' W 122°23'0 0.0
2015-Feb-26 19:33N 37°54' W 122°23'6 6.1
2015-Feb-26 18:33N 37°48' W 122°23'3 3.0
2015-Feb-26 17:32N 37°46' W 122°22'1 0.6
2015-Feb-26 16:31N 37°45' W 122°23'4 4.2
2015-Feb-26 15:33N 37°49' W 122°20'2 1.8
2015-Feb-26 14:33N 37°48' W 122°22'1 1.3
2015-Feb-26 13:33N 37°49' W 122°20'0 0.3
2015-Feb-26 12:32N 37°49' W 122°20'0 0.0
2015-Feb-26 11:32N 37°49' W 122°20'0 0.0
2015-Feb-26 10:32N 37°49' W 122°20'0 0.0
2015-Feb-26 09:32N 37°49' W 122°20'0 0.0
2015-Feb-26 08:32N 37°49' W 122°20'0 0.0
2015-Feb-26 07:32N 37°49' W 122°20'0 0.0
2015-Feb-26 06:34N 37°49' W 122°20'0 0.0
2015-Feb-26 05:33N 37°49' W 122°20'0 0.0
2015-Feb-26 04:34N 37°49' W 122°20'0 0.1
2015-Feb-26 03:33N 37°49' W 122°20'6 5.9
2015-Feb-26 02:33N 37°54' W 122°22'0 0.0
2015-Feb-26 01:33N 37°54' W 122°22'4 3.8
2015-Feb-26 00:33N 37°50' W 122°23'3 2.7
2015-Feb-25 23:33N 37°48' W 122°21'2 1.9
2015-Feb-25 22:32N 37°48' W 122°18'1 0.8
2015-Feb-25 21:33N 37°48' W 122°19'1 1.3
2015-Feb-25 20:33N 37°49' W 122°19'0 0.3
2015-Feb-25 19:30N 37°49' W 122°19'0 0.0
2015-Feb-25 18:33N 37°49' W 122°19'0 0.0
2015-Feb-25 17:33N 37°49' W 122°19'0 0.0
2015-Feb-25 16:33N 37°49' W 122°19'0 0.0
2015-Feb-25 15:30N 37°49' W 122°19'0 0.0
2015-Feb-25 14:33N 37°49' W 122°19'1 0.7
2015-Feb-25 13:32N 37°49' W 122°19'1 0.5
2015-Feb-25 12:33N 37°49' W 122°19'0 0.2
2015-Feb-25 11:32N 37°49' W 122°19'0 0.0
2015-Feb-25 10:32N 37°49' W 122°19'0 0.0
2015-Feb-25 09:32N 37°49' W 122°19'0 0.0
2015-Feb-25 08:32N 37°49' W 122°19'0 0.0
2015-Feb-25 07:32N 37°49' W 122°19'0 0.0
2015-Feb-25 06:32N 37°49' W 122°19'0 0.0
2015-Feb-25 05:29N 37°49' W 122°19'0 0.5
2015-Feb-25 04:33N 37°49' W 122°19'2 1.9
2015-Feb-25 03:32N 37°48' W 122°21'2 1.8
2015-Feb-25 02:31N 37°49' W 122°19'1 1.3
2015-Feb-25 01:31N 37°48' W 122°21'0 0.0
2015-Feb-25 00:31N 37°48' W 122°21'0 0.0
2015-Feb-24 23:31N 37°48' W 122°21'0 0.0
2015-Feb-24 22:33N 37°48' W 122°21'2 2.2
2015-Feb-24 21:33N 37°48' W 122°18'3 2.6
2015-Feb-24 20:33N 37°48' W 122°21'1 0.9
2015-Feb-24 19:33N 37°49' W 122°20'0 0.0
2015-Feb-24 18:33N 37°49' W 122°20'0 0.0
2015-Feb-24 17:33N 37°49' W 122°20'2 2.0
2015-Feb-24 16:34N 37°48' W 122°18'2 2.0
2015-Feb-24 15:33N 37°48' W 122°20'1 0.6
2015-Feb-24 14:31N 37°49' W 122°20'0 0.0
2015-Feb-24 13:32N 37°49' W 122°20'2 2.5
2015-Feb-24 12:33N 37°47' W 122°22'4 3.6
2015-Feb-24 11:31N 37°49' W 122°19'0 0.0
2015-Feb-24 10:31N 37°49' W 122°19'0 0.0
2015-Feb-24 09:31N 37°49' W 122°19'0 0.0
2015-Feb-24 08:31N 37°49' W 122°19'0 0.0
2015-Feb-24 07:25N 37°49' W 122°19'0 0.0
2015-Feb-24 06:31N 37°49' W 122°19'0 0.0
2015-Feb-24 05:31N 37°49' W 122°19'3 3.6
2015-Feb-24 04:33N 37°51' W 122°23'5 4.4
2015-Feb-24 03:31N 37°55' W 122°22'1 1.1
2015-Feb-24 02:34N 37°54' W 122°23'2 2.0
2015-Feb-24 01:33N 37°54' W 122°25'9 8.0
2015-Feb-24 00:28N 38°02' W 122°21'  
Track history (hours):
 
Tides and Currents Weather Stations Pressure Air Temp Water Temp Dewpoint Dewpoint Depression Visibility Wind Speed Wind Dir Waves Ship Positions

Sandra Hugh

Owner: Sortwell Inc., DBA AmNav Maritime Services, Oakland, CA. More information available from US FCC via Universal Licensing System and Coast Guard Vessel Documentation Center.

Last reported at 2015-Mar-05 21:21 UTC. Time now 2015-Mar-06 02:45 UTC.
Position N 38°04' W 122°13'.

Length 24 m; draft 4.9 m.

Type: Tug. MMSI: 367305920.

Date/timePositionNaut miles runAvg speedWind from/ knotsBaromVisibWave heightAir tempDewpointWater temp
2015-Mar-05 21:21N 38°04' W 122°13'910.6
2015-Mar-05 20:32N 38°01' W 122°24'6 6.4
2015-Mar-05 19:33N 37°55' W 122°24'1 0.6
2015-Mar-05 18:28N 37°55' W 122°25'3 3.2
2015-Mar-05 17:33N 37°52' W 122°25'2 2.4
2015-Mar-05 16:32N 37°55' W 122°23'0 0.2
2015-Mar-05 15:34N 37°54' W 122°23'2 1.6
2015-Mar-05 14:32N 37°55' W 122°25'7 6.9
2015-Mar-05 13:33N 38°02' W 122°22'7 0.5
2015-Mar-04 23:05N 38°04' W 122°13'5 8.4
2015-Mar-04 22:32N 38°03' W 122°19'9 8.8
2015-Mar-04 21:33N 37°57' W 122°27'7 7.3
2015-Mar-04 20:33N 37°50' W 122°28'3 2.4
2015-Mar-04 19:30N 37°49' W 122°31'4 4.3
2015-Mar-04 18:33N 37°49' W 122°26'6 6.2
2015-Mar-04 17:33N 37°48' W 122°18'0 0.2
2015-Mar-04 16:33N 37°48' W 122°18'2 1.7
2015-Mar-04 15:31N 37°49' W 122°19'0 0.0
2015-Mar-04 14:31N 37°49' W 122°19'0 0.0
2015-Mar-04 13:31N 37°49' W 122°19'0 0.0
2015-Mar-04 12:31N 37°49' W 122°19'0 0.0
2015-Mar-04 11:31N 37°49' W 122°19'0 0.0
2015-Mar-04 10:31N 37°49' W 122°19'0 0.0
2015-Mar-04 09:31N 37°49' W 122°19'0 0.0
2015-Mar-04 08:31N 37°49' W 122°19'0 0.0
2015-Mar-04 07:31N 37°49' W 122°19'0 0.0
2015-Mar-04 06:31N 37°49' W 122°19'0 0.0
2015-Mar-04 05:31N 37°49' W 122°19'0 0.0
2015-Mar-04 04:31N 37°49' W 122°19'0 0.0
2015-Mar-04 03:25N 37°49' W 122°19'0 0.0
2015-Mar-04 02:31N 37°49' W 122°19'0 0.0
2015-Mar-04 01:25N 37°49' W 122°19'0 0.0
2015-Mar-04 00:31N 37°49' W 122°19'0 0.0
2015-Mar-03 23:31N 37°49' W 122°19'0 0.0
2015-Mar-03 22:31N 37°49' W 122°19'0 0.0
2015-Mar-03 21:31N 37°49' W 122°19'2 0.2
2015-Mar-03 13:33N 37°48' W 122°21'2 1.4
2015-Mar-03 12:18N 37°49' W 122°19'0 0.0
2015-Mar-03 10:30N 37°49' W 122°19'0 0.0
2015-Mar-03 09:30N 37°49' W 122°19'0 0.0
2015-Mar-03 08:18N 37°49' W 122°19'0 0.0
2015-Mar-03 07:18N 37°49' W 122°19'0 0.0
2015-Mar-03 06:12N 37°49' W 122°19'0 0.0
2015-Mar-03 02:24N 37°49' W 122°19'0 0.0
2015-Mar-02 21:24N 37°49' W 122°19'0 0.0
2015-Mar-02 20:12N 37°49' W 122°19'5 6.4
2015-Mar-02 19:26N 37°46' W 122°23'0 0.0
2015-Mar-02 18:26N 37°46' W 122°23'0 0.1
2015-Mar-02 17:30N 37°46' W 122°23'0 0.2
2015-Mar-02 16:29N 37°46' W 122°23'2 2.3
2015-Mar-02 15:33N 37°47' W 122°21'3 2.4
2015-Mar-02 14:29N 37°49' W 122°19'0 0.0
2015-Mar-02 13:32N 37°49' W 122°19'0 0.0
2015-Mar-02 11:32N 37°49' W 122°19'0 0.0
2015-Mar-02 10:20N 37°49' W 122°19'0 0.0
2015-Mar-02 09:20N 37°49' W 122°19'0 0.0
2015-Mar-02 08:32N 37°49' W 122°19'0 0.0
2015-Mar-02 07:23N 37°49' W 122°19'1 1.1
2015-Mar-02 06:24N 37°49' W 122°20'2 2.2
2015-Mar-02 05:33N 37°48' W 122°22'3 2.9
2015-Mar-02 04:32N 37°49' W 122°19'0 0.0
2015-Mar-02 03:32N 37°49' W 122°19'0 0.0
2015-Mar-02 02:32N 37°49' W 122°19'1 1.4
2015-Mar-02 01:33N 37°49' W 122°20'1 1.1
2015-Mar-02 00:23N 37°49' W 122°19'0 0.0
2015-Mar-01 23:32N 37°49' W 122°19'0 0.0
2015-Mar-01 22:29N 37°49' W 122°19'0 0.0
2015-Mar-01 21:32N 37°49' W 122°19'0 0.0
2015-Mar-01 20:29N 37°49' W 122°19'0 0.0
2015-Mar-01 19:26N 37°49' W 122°19'0 0.0
2015-Mar-01 18:26N 37°49' W 122°19'0 0.0
2015-Mar-01 17:11N 37°49' W 122°19'0 0.0
2015-Mar-01 16:26N 37°49' W 122°19'0 0.0
2015-Mar-01 15:20N 37°49' W 122°19'0 0.5
2015-Mar-01 14:30N 37°49' W 122°19'2 2.6
2015-Mar-01 13:33N 37°48' W 122°22'3 2.5
2015-Mar-01 12:26N 37°49' W 122°19'1 0.8
2015-Mar-01 11:33N 37°49' W 122°19'1 0.5
2015-Mar-01 10:16N 37°49' W 122°19'0 0.0
2015-Mar-01 09:16N 37°49' W 122°19'0 0.0
2015-Mar-01 08:25N 37°49' W 122°19'0 0.0
2015-Mar-01 07:22N 37°49' W 122°19'0 0.0
2015-Mar-01 06:28N 37°49' W 122°19'0 0.0
2015-Mar-01 05:28N 37°49' W 122°19'0 0.0
2015-Mar-01 04:16N 37°49' W 122°19'0 0.0
2015-Mar-01 03:07N 37°49' W 122°19'0 0.0
2015-Mar-01 02:04N 37°49' W 122°19'0 0.0
2015-Mar-01 01:28N 37°49' W 122°19'0 0.0
2015-Feb-28 23:16N 37°49' W 122°19'0 0.0
2015-Feb-28 22:28N 37°49' W 122°19'0 0.0
2015-Feb-28 21:07N 37°49' W 122°19'0 0.0
2015-Feb-28 20:31N 37°49' W 122°19'0 0.0
2015-Feb-28 19:04N 37°49' W 122°19'0 0.0
2015-Feb-28 17:22N 37°49' W 122°19'0 0.0
2015-Feb-28 15:31N 37°49' W 122°19'1 0.5
2015-Feb-28 14:33N 37°49' W 122°19'1 1.2
2015-Feb-28 13:30N 37°48' W 122°21'1 1.1
2015-Feb-28 12:17N 37°49' W 122°19'0 0.4
2015-Feb-28 11:28N 37°49' W 122°19'0 0.0
2015-Feb-28 10:22N 37°49' W 122°19'0 0.0
2015-Feb-28 09:22N 37°49' W 122°19'0 0.0
2015-Feb-28 08:28N 37°49' W 122°19'0 0.0
2015-Feb-28 07:31N 37°49' W 122°19'0 0.0
2015-Feb-28 06:31N 37°49' W 122°19'0 0.0
2015-Feb-28 05:28N 37°49' W 122°19'0 0.0
2015-Feb-28 04:28N 37°49' W 122°19'2 1.8
2015-Feb-28 03:29N 37°48' W 122°18'1 0.8
2015-Feb-28 02:33N 37°48' W 122°19'2 1.5
2015-Feb-28 01:32N 37°49' W 122°19'0 0.0
2015-Feb-28 00:32N 37°49' W 122°19'0 0.0
2015-Feb-27 23:32N 37°49' W 122°19'0 0.0
2015-Feb-27 22:32N 37°49' W 122°19'1 0.7
2015-Feb-27 21:32N 37°49' W 122°19'1 0.7
2015-Feb-27 20:31N 37°49' W 122°19'0 0.0
2015-Feb-27 19:31N 37°49' W 122°19'0 0.0
2015-Feb-27 18:31N 37°49' W 122°19'0 0.0
2015-Feb-27 17:28N 37°49' W 122°19'0 0.0
2015-Feb-27 16:28N 37°49' W 122°19'0 0.0
2015-Feb-27 15:31N 37°49' W 122°19'4 4.2
2015-Feb-27 14:31N 37°48' W 122°24'1 0.8
2015-Feb-27 13:32N 37°49' W 122°24'4 4.2
2015-Feb-27 12:34N 37°49' W 122°19'1 0.6
2015-Feb-27 11:32N 37°49' W 122°19'0 0.0
2015-Feb-27 10:32N 37°49' W 122°19'0 0.0
2015-Feb-27 09:29N 37°49' W 122°19'0 0.0
2015-Feb-27 08:32N 37°49' W 122°19'0 0.0
2015-Feb-27 07:32N 37°49' W 122°19'0 0.0
2015-Feb-27 06:32N 37°49' W 122°19'0 0.0
2015-Feb-27 05:32N 37°49' W 122°19'0 0.0
2015-Feb-27 04:32N 37°49' W 122°19'0 0.0
2015-Feb-27 03:32N 37°49' W 122°19'0 0.0
2015-Feb-27 02:29N 37°49' W 122°19'0 0.2
2015-Feb-27 01:33N 37°49' W 122°19'6 6.2
2015-Feb-27 00:34N 37°54' W 122°23'1 1.1
2015-Feb-26 23:33N 37°54' W 122°22'3 2.6
2015-Feb-26 22:32N 37°55' W 122°25'2 1.6
2015-Feb-26 21:33N 37°54' W 122°23'0 0.0
2015-Feb-26 20:33N 37°54' W 122°23'0 0.0
2015-Feb-26 19:33N 37°54' W 122°23'6 6.1
2015-Feb-26 18:33N 37°48' W 122°23'3 3.0
2015-Feb-26 17:32N 37°46' W 122°22'1 0.6
2015-Feb-26 16:31N 37°45' W 122°23'4 4.2
2015-Feb-26 15:33N 37°49' W 122°20'2 1.8
2015-Feb-26 14:33N 37°48' W 122°22'1 1.3
2015-Feb-26 13:33N 37°49' W 122°20'0 0.3
2015-Feb-26 12:32N 37°49' W 122°20'0 0.0
2015-Feb-26 11:32N 37°49' W 122°20'0 0.0
2015-Feb-26 10:32N 37°49' W 122°20'0 0.0
2015-Feb-26 09:32N 37°49' W 122°20'0 0.0
2015-Feb-26 08:32N 37°49' W 122°20'0 0.0
2015-Feb-26 07:32N 37°49' W 122°20'0 0.0
2015-Feb-26 06:34N 37°49' W 122°20'0 0.0
2015-Feb-26 05:33N 37°49' W 122°20'0 0.0
2015-Feb-26 04:34N 37°49' W 122°20'0 0.1
2015-Feb-26 03:33N 37°49' W 122°20'6 5.9
2015-Feb-26 02:33N 37°54' W 122°22'0 0.0
2015-Feb-26 01:33N 37°54' W 122°22'4 3.8
2015-Feb-26 00:33N 37°50' W 122°23'3 2.7
2015-Feb-25 23:33N 37°48' W 122°21'2 1.9
2015-Feb-25 22:32N 37°48' W 122°18'1 0.8
2015-Feb-25 21:33N 37°48' W 122°19'1 1.3
2015-Feb-25 20:33N 37°49' W 122°19'0 0.3
2015-Feb-25 19:30N 37°49' W 122°19'0 0.0
2015-Feb-25 18:33N 37°49' W 122°19'0 0.0
2015-Feb-25 17:33N 37°49' W 122°19'0 0.0
2015-Feb-25 16:33N 37°49' W 122°19'0 0.0
2015-Feb-25 15:30N 37°49' W 122°19'0 0.0
2015-Feb-25 14:33N 37°49' W 122°19'1 0.7
2015-Feb-25 13:32N 37°49' W 122°19'1 0.5
2015-Feb-25 12:33N 37°49' W 122°19'0 0.2
2015-Feb-25 11:32N 37°49' W 122°19'0 0.0
2015-Feb-25 10:32N 37°49' W 122°19'0 0.0
2015-Feb-25 09:32N 37°49' W 122°19'0 0.0
2015-Feb-25 08:32N 37°49' W 122°19'0 0.0
2015-Feb-25 07:32N 37°49' W 122°19'0 0.0
2015-Feb-25 06:32N 37°49' W 122°19'0 0.0
2015-Feb-25 05:29N 37°49' W 122°19'0 0.5
2015-Feb-25 04:33N 37°49' W 122°19'2 1.9
2015-Feb-25 03:32N 37°48' W 122°21'2 1.8
2015-Feb-25 02:31N 37°49' W 122°19'1 1.3
2015-Feb-25 01:31N 37°48' W 122°21'0 0.0
2015-Feb-25 00:31N 37°48' W 122°21'0 0.0
2015-Feb-24 23:31N 37°48' W 122°21'0 0.0
2015-Feb-24 22:33N 37°48' W 122°21'2 2.2
2015-Feb-24 21:33N 37°48' W 122°18'3 2.6
2015-Feb-24 20:33N 37°48' W 122°21'1 0.9
2015-Feb-24 19:33N 37°49' W 122°20'0 0.0
2015-Feb-24 18:33N 37°49' W 122°20'0 0.0
2015-Feb-24 17:33N 37°49' W 122°20'2 2.0
2015-Feb-24 16:34N 37°48' W 122°18'2 2.0
2015-Feb-24 15:33N 37°48' W 122°20'1 0.6
2015-Feb-24 14:31N 37°49' W 122°20'0 0.0
2015-Feb-24 13:32N 37°49' W 122°20'2 2.5
2015-Feb-24 12:33N 37°47' W 122°22'4 3.6
2015-Feb-24 11:31N 37°49' W 122°19'0 0.0
2015-Feb-24 10:31N 37°49' W 122°19'0 0.0
2015-Feb-24 09:31N 37°49' W 122°19'0 0.0
2015-Feb-24 08:31N 37°49' W 122°19'0 0.0
2015-Feb-24 07:25N 37°49' W 122°19'0 0.0
2015-Feb-24 06:31N 37°49' W 122°19'0 0.0
2015-Feb-24 05:31N 37°49' W 122°19'3 3.6
2015-Feb-24 04:33N 37°51' W 122°23'5 4.4
2015-Feb-24 03:31N 37°55' W 122°22'1 1.1
2015-Feb-24 02:34N 37°54' W 122°23'2 2.0
2015-Feb-24 01:33N 37°54' W 122°25'9 8.0
2015-Feb-24 00:28N 38°02' W 122°21'  

Dump ship's entire track history